createdAt,value
2022-09-28T00:01:25.319Z,11.50
2022-09-28T00:05:07.701Z,11.50
2022-09-28T00:08:52.452Z,11.40
2022-09-28T00:12:34.740Z,11.40
2022-09-28T00:16:19.822Z,11.40
2022-09-28T00:20:03.058Z,11.30
2022-09-28T00:24:04.427Z,11.20
2022-09-28T00:27:51.196Z,11.20
2022-09-28T00:31:34.365Z,11.10
2022-09-28T00:35:16.325Z,11.10
2022-09-28T00:39:03.598Z,11.10
2022-09-28T00:42:45.438Z,11.00
2022-09-28T00:46:35.528Z,11.00
2022-09-28T00:50:26.255Z,10.90
2022-09-28T00:54:09.385Z,10.90
2022-09-28T00:57:56.907Z,10.90
2022-09-28T01:01:39.098Z,10.90
2022-09-28T01:05:22.126Z,10.80
2022-09-28T01:09:08.827Z,10.80
2022-09-28T01:12:51.008Z,10.70
2022-09-28T01:16:46.254Z,10.80
2022-09-28T01:20:34.314Z,10.70
2022-09-28T01:24:42.331Z,10.70
2022-09-28T01:28:30.396Z,10.60
2022-09-28T01:32:31.121Z,10.60
2022-09-28T01:36:23.362Z,10.50
2022-09-28T01:40:07.275Z,10.50
2022-09-28T01:43:54.733Z,10.50
2022-09-28T01:47:39.992Z,10.40
2022-09-28T01:51:32.105Z,10.40
2022-09-28T01:55:34.201Z,10.30
2022-09-28T01:59:20.559Z,10.30
2022-09-28T02:03:10.680Z,10.20
2022-09-28T02:06:58.034Z,10.20
2022-09-28T02:10:51.840Z,10.20
2022-09-28T02:14:35.001Z,10.20
2022-09-28T02:18:17.507Z,10.20
2022-09-28T02:22:37.345Z,10.30
2022-09-28T02:26:23.199Z,10.30
2022-09-28T02:30:06.732Z,10.40
2022-09-28T02:33:51.414Z,10.50
2022-09-28T02:37:33.260Z,10.50
2022-09-28T02:41:39.910Z,10.50
2022-09-28T02:45:21.823Z,10.50
2022-09-28T02:49:25.861Z,10.50
2022-09-28T02:53:17.232Z,10.40
2022-09-28T02:57:11.249Z,10.40
2022-09-28T03:01:15.447Z,10.30
2022-09-28T03:05:12.151Z,10.20
2022-09-28T03:09:15.010Z,10.20
2022-09-28T03:12:57.777Z,10.20
2022-09-28T03:16:44.374Z,10.20
2022-09-28T03:20:27.684Z,10.20
2022-09-28T03:24:11.362Z,10.20
2022-09-28T03:27:53.211Z,10.20
2022-09-28T03:31:35.377Z,10.20
2022-09-28T03:35:17.241Z,10.10
2022-09-28T03:38:59.683Z,10.00
2022-09-28T03:42:43.997Z,10.00
2022-09-28T03:46:25.789Z,10.00
2022-09-28T03:50:08.043Z,9.90
2022-09-28T03:53:49.990Z,9.90
2022-09-28T03:57:31.936Z,10.00
2022-09-28T04:01:18.325Z,10.00
2022-09-28T04:05:00.498Z,10.10
2022-09-28T04:08:43.495Z,10.10
2022-09-28T04:12:25.438Z,10.20
2022-09-28T04:16:07.736Z,10.30
2022-09-28T04:19:49.584Z,10.40
2022-09-28T04:23:31.494Z,10.40
2022-09-28T04:27:31.839Z,10.50
2022-09-28T04:31:17.428Z,10.40
2022-09-28T04:34:59.347Z,10.30
2022-09-28T04:38:52.770Z,10.20
2022-09-28T04:42:37.161Z,10.10
2022-09-28T04:46:19.675Z,10.00
2022-09-28T04:50:01.533Z,9.90
2022-09-28T04:53:43.515Z,9.90
2022-09-28T04:57:25.357Z,9.80
2022-09-28T05:01:11.254Z,9.70
2022-09-28T05:04:55.435Z,9.60
2022-09-28T05:08:37.354Z,9.60
2022-09-28T05:12:19.248Z,9.60
2022-09-28T05:16:05.199Z,9.50
2022-09-28T05:19:47.517Z,9.60
2022-09-28T05:23:29.364Z,9.60
2022-09-28T05:27:11.209Z,9.60
2022-09-28T05:30:53.329Z,9.60
2022-09-28T05:34:35.209Z,9.60
2022-09-28T05:38:17.402Z,9.60
2022-09-28T05:41:59.239Z,9.60
2022-09-28T05:45:41.377Z,9.60
2022-09-28T05:49:23.287Z,9.60
2022-09-28T05:53:09.655Z,9.70
2022-09-28T05:56:51.579Z,9.70
2022-09-28T06:00:34.394Z,9.70
2022-09-28T06:04:16.578Z,9.70
2022-09-28T06:07:59.902Z,9.70
2022-09-28T06:11:41.700Z,9.70
2022-09-28T06:15:26.030Z,9.70
2022-09-28T06:19:12.522Z,9.80
2022-09-28T06:22:55.019Z,9.80
2022-09-28T06:26:38.330Z,9.90
2022-09-28T06:30:20.149Z,10.00
2022-09-28T06:34:02.330Z,10.00
2022-09-28T06:37:47.513Z,10.20
2022-09-28T06:41:29.400Z,10.30
2022-09-28T06:45:11.516Z,10.40
2022-09-28T06:48:54.700Z,10.50
2022-09-28T06:52:38.114Z,10.40
2022-09-28T06:56:21.246Z,10.50
2022-09-28T07:00:04.041Z,10.40
2022-09-28T07:03:45.986Z,10.50
2022-09-28T07:07:31.973Z,10.50
2022-09-28T07:11:14.590Z,10.50
2022-09-28T07:14:57.518Z,10.50
2022-09-28T07:18:39.449Z,10.70
2022-09-28T07:22:32.365Z,10.90
2022-09-28T07:26:24.352Z,11.40
2022-09-28T07:30:09.720Z,11.60
2022-09-28T07:33:56.164Z,11.70
2022-09-28T07:37:38.890Z,11.80
2022-09-28T07:41:33.202Z,11.80
2022-09-28T07:45:15.449Z,11.80
2022-09-28T07:48:57.642Z,11.80
2022-09-28T07:52:39.629Z,11.90
2022-09-28T07:56:21.587Z,12.00
2022-09-28T08:00:06.141Z,12.00
2022-09-28T08:03:48.653Z,12.10
2022-09-28T08:07:31.877Z,12.30
2022-09-28T08:11:16.874Z,12.50
2022-09-28T08:15:00.223Z,12.80
2022-09-28T08:18:42.192Z,13.50
2022-09-28T08:22:24.028Z,14.40
2022-09-28T08:26:06.823Z,15.50
2022-09-28T08:29:48.624Z,16.50
2022-09-28T08:33:31.001Z,17.20
2022-09-28T08:37:13.152Z,17.50
2022-09-28T08:41:06.194Z,17.50
2022-09-28T08:44:58.119Z,17.50
2022-09-28T08:49:23.648Z,17.40
2022-09-28T08:53:19.531Z,17.30
2022-09-28T08:57:13.500Z,17.10
2022-09-28T09:00:55.414Z,17.00
2022-09-28T09:04:37.885Z,16.90
2022-09-28T09:08:58.533Z,17.60
2022-09-28T09:12:40.405Z,18.90
2022-09-28T09:16:45.068Z,20.20
2022-09-28T09:20:45.905Z,21.10
2022-09-28T09:24:36.278Z,21.80
2022-09-28T09:28:43.745Z,22.60
2022-09-28T09:33:02.257Z,23.20
2022-09-28T09:37:34.217Z,23.90
2022-09-28T09:41:23.387Z,24.00
2022-09-28T09:45:05.626Z,23.20
2022-09-28T09:49:19.715Z,22.40
2022-09-28T09:53:38.622Z,22.50
2022-09-28T09:57:29.284Z,23.00
2022-09-28T10:01:15.685Z,23.10
2022-09-28T10:05:18.076Z,23.30
2022-09-28T10:09:32.622Z,24.10
2022-09-28T10:13:14.948Z,25.10
2022-09-28T10:16:58.658Z,25.00
2022-09-28T10:20:43.885Z,24.70
2022-09-28T10:24:31.181Z,24.40
2022-09-28T10:28:24.026Z,23.70
2022-09-28T10:32:22.792Z,24.10
2022-09-28T10:36:07.606Z,25.30
2022-09-28T10:39:55.491Z,26.30
2022-09-28T10:44:06.437Z,27.00
2022-09-28T10:47:56.042Z,27.80
2022-09-28T10:51:56.104Z,27.30
2022-09-28T10:55:38.258Z,26.10
2022-09-28T10:59:29.723Z,25.00
2022-09-28T11:03:29.269Z,24.50
2022-09-28T11:07:44.179Z,24.40
2022-09-28T11:11:31.371Z,23.90
2022-09-28T11:15:27.145Z,23.30
2022-09-28T11:19:21.683Z,22.80
2022-09-28T11:23:21.375Z,22.30
2022-09-28T11:27:05.903Z,22.00
2022-09-28T11:30:53.542Z,21.90
2022-09-28T11:35:00.299Z,21.60
2022-09-28T11:38:54.644Z,21.30
2022-09-28T11:43:38.752Z,21.10
2022-09-28T11:47:50.942Z,20.80
2022-09-28T11:51:36.760Z,20.50
2022-09-28T11:55:35.346Z,20.50
2022-09-28T11:59:38.694Z,20.70
2022-09-28T12:03:37.273Z,21.50
2022-09-28T12:07:27.539Z,23.60
2022-09-28T12:11:25.595Z,24.60
2022-09-28T12:15:25.708Z,24.30
2022-09-28T12:19:21.329Z,23.50
2022-09-28T12:23:12.461Z,22.70
2022-09-28T12:27:21.964Z,22.00
2022-09-28T12:31:16.258Z,21.30
2022-09-28T12:34:59.299Z,21.10
2022-09-28T12:39:08.767Z,22.50
2022-09-28T12:43:29.404Z,24.80
2022-09-28T12:47:21.607Z,25.70
2022-09-28T12:51:07.612Z,25.60
2022-09-28T12:55:26.801Z,25.60
2022-09-28T12:59:21.870Z,25.10
2022-09-28T13:03:45.680Z,24.20
2022-09-28T13:07:50.932Z,23.30
2022-09-28T13:12:06.856Z,22.70
2022-09-28T13:16:06.807Z,22.40
2022-09-28T13:20:18.279Z,22.60
2022-09-28T13:24:20.990Z,22.50
2022-09-28T13:28:07.723Z,22.40
2022-09-28T13:31:53.828Z,22.30
2022-09-28T13:35:41.524Z,22.30
2022-09-28T13:39:59.112Z,22.90
2022-09-28T13:44:04.176Z,24.60
2022-09-28T13:47:52.641Z,26.50
2022-09-28T13:52:03.797Z,27.60
2022-09-28T13:56:00.706Z,28.40
2022-09-28T14:00:08.546Z,28.90
2022-09-28T14:04:09.567Z,29.30
2022-09-28T14:08:20.782Z,29.60
2022-09-28T14:12:24.522Z,29.60
2022-09-28T14:16:18.671Z,29.20
2022-09-28T14:20:06.445Z,27.70
2022-09-28T14:24:20.206Z,26.30
2022-09-28T14:28:26.627Z,25.00
2022-09-28T14:32:08.434Z,23.90
2022-09-28T14:35:54.493Z,23.00
2022-09-28T14:39:57.065Z,22.00
2022-09-28T14:43:46.058Z,21.00
2022-09-28T14:47:35.513Z,20.10
2022-09-28T14:51:30.143Z,19.40
2022-09-28T14:55:15.700Z,18.70
2022-09-28T14:58:58.917Z,18.30
2022-09-28T15:02:43.802Z,18.00
2022-09-28T15:06:34.397Z,17.70
2022-09-28T15:10:35.632Z,17.40
2022-09-28T15:14:19.380Z,17.20
2022-09-28T15:18:30.422Z,17.00
2022-09-28T15:22:33.501Z,16.90
2022-09-28T15:26:48.384Z,16.80
2022-09-28T15:30:33.157Z,16.80
2022-09-28T15:34:50.600Z,16.80
2022-09-28T15:38:34.620Z,16.70
2022-09-28T15:42:18.620Z,16.80
2022-09-28T15:46:18.666Z,16.90
2022-09-28T15:50:07.338Z,16.90
2022-09-28T15:54:19.808Z,16.90
2022-09-28T15:58:20.391Z,16.90
2022-09-28T16:02:15.572Z,16.90
2022-09-28T16:06:10.925Z,16.80
2022-09-28T16:10:05.034Z,16.80
2022-09-28T16:14:07.389Z,16.80
2022-09-28T16:17:55.288Z,16.80
2022-09-28T16:21:45.083Z,16.70
2022-09-28T16:25:27.336Z,16.60
2022-09-28T16:29:28.412Z,16.50
2022-09-28T16:33:52.676Z,16.50
2022-09-28T16:37:34.549Z,16.40
2022-09-28T16:41:21.519Z,16.30
2022-09-28T16:45:07.906Z,16.20
2022-09-28T16:48:50.791Z,16.10
2022-09-28T16:52:51.758Z,16.00
2022-09-28T16:56:35.269Z,16.00
2022-09-28T17:00:20.322Z,15.90
2022-09-28T17:04:02.207Z,15.80
2022-09-28T17:07:45.356Z,15.70
2022-09-28T17:11:27.210Z,15.70
2022-09-28T17:15:09.421Z,15.60
2022-09-28T17:18:51.551Z,15.50
2022-09-28T17:22:33.470Z,15.50
2022-09-28T17:26:27.324Z,15.40
2022-09-28T17:30:11.841Z,15.30
2022-09-28T17:33:54.661Z,15.20
2022-09-28T17:37:36.564Z,15.20
2022-09-28T17:41:20.838Z,15.10
2022-09-28T17:45:02.936Z,15.00
2022-09-28T17:48:47.359Z,15.00
2022-09-28T17:52:29.434Z,14.90
2022-09-28T17:56:12.179Z,14.80
2022-09-28T17:59:54.023Z,14.80
2022-09-28T18:03:36.044Z,14.70
2022-09-28T18:07:17.916Z,14.60
2022-09-28T18:11:01.713Z,14.60
2022-09-28T18:14:43.638Z,14.50
2022-09-28T18:18:26.033Z,14.50
2022-09-28T18:22:07.943Z,14.50
2022-09-28T18:25:50.032Z,14.50
2022-09-28T18:29:33.437Z,14.50
2022-09-28T18:33:15.853Z,14.40
2022-09-28T18:36:57.788Z,14.30
2022-09-28T18:40:39.812Z,14.30
2022-09-28T18:44:22.045Z,14.30
2022-09-28T18:48:04.030Z,14.20
2022-09-28T18:51:45.881Z,14.20
2022-09-28T18:55:28.949Z,14.20
2022-09-28T18:59:12.322Z,14.20
2022-09-28T19:02:54.862Z,14.10
2022-09-28T19:06:41.628Z,14.10
2022-09-28T19:10:23.621Z,14.00
2022-09-28T19:14:05.504Z,14.00
2022-09-28T19:17:48.004Z,14.00
2022-09-28T19:21:31.012Z,13.90
2022-09-28T19:25:13.447Z,13.80
2022-09-28T19:28:59.214Z,13.80
2022-09-28T19:32:42.914Z,13.70
2022-09-28T19:36:28.520Z,13.70
2022-09-28T19:40:10.596Z,13.60
2022-09-28T19:43:52.446Z,13.60
2022-09-28T19:47:34.445Z,13.50
2022-09-28T19:51:16.345Z,13.50
2022-09-28T19:54:58.321Z,13.50
2022-09-28T19:58:40.810Z,13.40
2022-09-28T20:02:23.033Z,13.30
2022-09-28T20:06:05.733Z,13.20
2022-09-28T20:09:47.906Z,13.10
2022-09-28T20:13:32.222Z,13.00
2022-09-28T20:17:14.241Z,13.00
2022-09-28T20:21:08.082Z,13.00
2022-09-28T20:24:49.901Z,13.00
2022-09-28T20:28:32.241Z,13.00
2022-09-28T20:32:14.295Z,13.00
2022-09-28T20:35:56.143Z,13.00
2022-09-28T20:39:40.417Z,13.00
2022-09-28T20:43:27.068Z,13.00
2022-09-28T20:47:08.947Z,13.10
2022-09-28T20:51:01.536Z,13.00
2022-09-28T20:54:43.469Z,13.10
2022-09-28T20:58:26.012Z,13.00
2022-09-28T21:02:10.574Z,13.10
2022-09-28T21:05:52.437Z,13.10
2022-09-28T21:09:34.597Z,13.10
2022-09-28T21:13:16.582Z,13.00
2022-09-28T21:16:58.486Z,13.00
2022-09-28T21:20:47.736Z,13.00
2022-09-28T21:24:29.638Z,13.00
2022-09-28T21:28:20.830Z,13.10
2022-09-28T21:32:02.665Z,13.00
2022-09-28T21:35:44.486Z,13.00
2022-09-28T21:39:26.674Z,13.00
2022-09-28T21:43:08.536Z,13.00
2022-09-28T21:46:50.590Z,13.00
2022-09-28T21:50:32.737Z,12.90
2022-09-28T21:54:15.094Z,12.90
2022-09-28T21:57:56.976Z,12.70
2022-09-28T22:01:38.942Z,12.60
2022-09-28T22:05:20.849Z,12.50
2022-09-28T22:09:02.968Z,12.40
2022-09-28T22:12:44.842Z,12.30
2022-09-28T22:16:29.481Z,12.10
2022-09-28T22:20:11.276Z,12.00
2022-09-28T22:23:53.627Z,11.90
2022-09-28T22:27:35.452Z,11.80
2022-09-28T22:31:19.144Z,11.70
2022-09-28T22:35:01.338Z,11.60
2022-09-28T22:38:44.681Z,11.50
2022-09-28T22:42:26.696Z,11.50
2022-09-28T22:46:15.563Z,11.40
2022-09-28T22:49:57.416Z,11.30
2022-09-28T22:53:39.350Z,11.20
2022-09-28T22:57:21.799Z,11.20
2022-09-28T23:01:11.046Z,11.10
2022-09-28T23:04:52.920Z,11.10
2022-09-28T23:08:35.455Z,11.00
2022-09-28T23:12:17.595Z,11.00
2022-09-28T23:16:02.982Z,10.90
2022-09-28T23:19:44.900Z,10.90
2022-09-28T23:23:27.219Z,10.80
2022-09-28T23:27:09.118Z,10.70
2022-09-28T23:30:51.705Z,10.70
2022-09-28T23:34:33.676Z,10.60
2022-09-28T23:38:18.463Z,10.50
2022-09-28T23:42:00.391Z,10.50
2022-09-28T23:45:45.711Z,10.40
2022-09-28T23:49:27.615Z,10.30
2022-09-28T23:53:10.310Z,10.20
2022-09-28T23:56:52.336Z,10.20
